Time;durP1;ratioP1;P1;durP2;ratioP2;P2;SDS_P1;SDS_P2;PMS_P1;PMS_P2;Temp;Humidity;BMP_temperature;BMP_pressure;BME280_temperature;BME280_humidity;BME280_pressure;Samples;Min_cycle;Max_cycle;Signal;HPM_P1;HPM_P2
2022/08/10 08:01:30;;;;;;;42.00;35.88;;;;;;;20.95;62.24;102460.41;5293044;28;20424;-69
2022/08/10 08:04:05;;;;;;;95.03;77.10;;;;;;;21.00;62.05;102457.44;5283912;28;20033;-70
2022/08/10 08:06:38;;;;;;;10.45;8.98;;;;;;;21.05;61.42;102462.97;5283479;28;20031;-69
2022/08/10 08:09:12;;;;;;;8.65;5.72;;;;;;;21.13;61.54;102462.16;5288541;28;20094;-69
2022/08/10 08:11:45;;;;;;;7.88;6.32;;;;;;;21.18;61.71;102464.84;5268374;28;20107;-68
2022/08/10 08:14:20;;;;;;;9.05;6.88;;;;;;;21.12;61.52;102459.69;5294763;28;20445;-69
2022/08/10 08:16:54;;;;;;;7.38;6.22;;;;;;;21.14;61.27;102461.03;5274365;28;20132;-69
2022/08/10 08:19:27;;;;;;;6.50;5.90;;;;;;;21.28;61.30;102467.41;5282599;28;20052;-69
2022/08/10 08:22:00;;;;;;;5.68;5.05;;;;;;;21.41;60.83;102467.66;5294387;28;20032;-68
2022/08/10 08:24:36;;;;;;;7.32;6.10;;;;;;;21.56;60.86;102464.41;5285790;28;20016;-68
2022/08/10 08:27:18;;;;;;;6.47;5.78;;;;;;;21.68;60.11;102461.81;5289198;28;20112;-72
2022/08/10 08:29:51;;;;;;;8.05;4.80;;;;;;;21.74;60.01;102456.84;5262356;28;20035;-66
2022/08/10 08:32:25;;;;;;;5.30;4.80;;;;;;;21.79;59.41;102458.69;5288000;28;20032;-67
2022/08/10 08:35:01;;;;;;;6.15;5.03;;;;;;;21.82;59.02;102464.50;5296865;28;20117;-67
2022/08/10 08:37:34;;;;;;;6.93;3.88;;;;;;;21.88;59.40;102462.34;5284863;28;20040;-67
2022/08/10 08:40:09;;;;;;;8.23;4.93;;;;;;;22.08;58.32;102458.91;5280933;28;20482;-67
2022/08/10 08:42:53;;;;;;;8.23;5.60;;;;;;;22.18;58.74;102459.75;5297006;28;20032;-67
2022/08/10 08:45:43;;;;;;;7.20;6.15;;;;;;;22.13;58.67;102453.09;5285507;28;20053;-67
2022/08/10 08:48:36;;;;;;;5.82;5.15;;;;;;;22.35;58.09;102455.00;5286165;28;20020;-69
2022/08/10 08:51:36;;;;;;;5.88;5.00;;;;;;;22.37;57.18;102457.50;5274699;28;20051;-69
2022/08/10 08:54:20;;;;;;;6.60;4.68;;;;;;;22.42;56.92;102448.00;5267271;28;20042;-69
2022/08/10 08:57:04;;;;;;;6.80;3.85;;;;;;;22.65;56.46;102459.97;5281376;28;20048;-70
2022/08/10 08:59:51;;;;;;;9.63;5.75;;;;;;;22.74;56.19;102467.28;5263587;28;20037;-69
2022/08/10 09:02:32;;;;;;;6.53;5.15;;;;;;;22.89;55.85;102459.47;5278507;28;20045;-69
2022/08/10 09:05:22;;;;;;;6.05;5.05;;;;;;;22.93;55.31;102461.31;5268846;28;20017;-69
2022/08/10 09:08:01;;;;;;;6.95;5.57;;;;;;;23.04;55.23;102458.16;5282481;28;20031;-69
2022/08/10 09:10:51;;;;;;;8.15;6.63;;;;;;;23.12;54.83;102454.47;5276110;28;20047;-69
2022/08/10 09:13:46;;;;;;;6.63;5.50;;;;;;;23.27;54.81;102445.41;5260519;28;20033;-69
2022/08/10 09:16:27;;;;;;;8.73;6.03;;;;;;;23.22;54.88;102439.94;5281309;28;20021;-70
2022/08/10 09:18:58;;;;;;;9.07;6.60;;;;;;;23.31;54.57;102439.91;5273542;28;20060;-70
2022/08/10 09:22:12;;;;;;;10.82;9.40;;;;;;;23.38;54.28;102441.03;5278474;28;20430;-69
2022/08/10 09:24:48;;;;;;;7.30;4.65;;;;;;;23.53;54.28;102434.00;5266223;28;20064;-69
2022/08/10 09:27:31;;;;;;;6.47;5.38;;;;;;;23.61;53.66;102437.94;5276457;28;20052;-68
2022/08/10 09:30:06;;;;;;;26.75;23.88;;;;;;;23.78;53.48;102439.91;5264289;28;20120;-70
2022/08/10 09:32:49;;;;;;;10.95;9.75;;;;;;;23.84;52.79;102425.19;5270459;28;20020;-69
2022/08/10 09:35:31;;;;;;;13.13;10.43;;;;;;;23.80;52.62;102429.03;5262538;28;20063;-73
2022/08/10 09:38:27;;;;;;;8.23;5.85;;;;;;;23.86;52.00;102422.84;5264237;28;20112;-69
2022/08/10 09:41:36;;;;;;;5.32;4.57;;;;;;;23.93;51.98;102427.97;5266057;28;20024;-71
2022/08/10 09:44:29;;;;;;;8.73;5.00;;;;;;;23.99;52.09;102417.28;5265399;28;20021;-70
2022/08/10 09:47:31;;;;;;;6.75;4.20;;;;;;;24.14;50.70;102425.16;5272927;28;20116;-69
2022/08/10 09:50:15;;;;;;;5.88;4.68;;;;;;;24.02;51.15;102416.56;5258593;28;20064;-69
2022/08/10 09:52:49;;;;;;;8.10;4.88;;;;;;;24.25;51.40;102419.91;5276254;28;20025;-68
2022/08/10 09:55:35;;;;;;;7.55;4.30;;;;;;;24.33;51.00;102412.50;5275853;28;20034;-69
2022/08/10 09:58:33;;;;;;;12.70;11.45;;;;;;;24.35;50.61;102404.50;5267077;28;20035;-69
2022/08/10 10:01:24;;;;;;;5.03;4.20;;;;;;;24.49;49.44;102408.72;5272440;28;20087;-69
2022/08/10 10:04:14;;;;;;;7.53;4.85;;;;;;;24.62;49.27;102405.91;5252738;28;20021;-69
2022/08/10 10:06:55;;;;;;;10.95;5.35;;;;;;;24.53;48.69;102400.34;5269917;28;20058;-68
2022/08/10 10:09:38;;;;;;;4.78;3.80;;;;;;;24.79;49.23;102399.25;5262253;28;20033;-68
2022/08/10 10:12:12;;;;;;;6.07;4.00;;;;;;;24.87;48.02;102398.31;5274885;28;20041;-68
2022/08/10 10:15:20;;;;;;;6.23;3.60;;;;;;;25.04;47.54;102389.63;5257571;28;20393;-66
2022/08/10 10:18:13;;;;;;;8.00;4.10;;;;;;;25.17;47.36;102390.50;5265799;28;20029;-69
2022/08/10 10:21:23;;;;;;;5.97;3.60;;;;;;;25.23;46.53;102382.56;5264030;28;20070;-68
2022/08/10 10:24:05;;;;;;;8.15;3.95;;;;;;;25.29;44.52;102376.31;5260014;28;20497;-68
2022/08/10 10:26:44;;;;;;;4.28;3.17;;;;;;;25.37;43.95;102378.22;5256283;28;20040;-68
2022/08/10 10:29:34;;;;;;;3.38;2.88;;;;;;;25.45;43.07;102376.44;5271002;28;20029;-68
2022/08/10 10:32:16;;;;;;;5.00;3.65;;;;;;;25.60;42.33;102375.72;5252254;28;20483;-68
2022/08/10 10:35:01;;;;;;;5.03;3.60;;;;;;;25.80;41.86;102373.94;5275349;28;20123;-67
2022/08/10 10:37:34;;;;;;;5.57;3.20;;;;;;;25.85;41.66;102370.06;5260462;28;20492;-69
2022/08/10 10:40:07;;;;;;;6.22;3.42;;;;;;;25.95;42.13;102366.72;5249184;28;20135;-70
2022/08/10 10:42:51;;;;;;;6.60;3.75;;;;;;;26.00;41.80;102366.47;5275627;28;20036;-68
2022/08/10 10:45:49;;;;;;;3.60;3.17;;;;;;;25.99;42.08;102363.97;5270031;28;20060;-68
2022/08/10 10:48:38;;;;;;;3.97;3.30;;;;;;;26.10;41.75;102364.28;5258535;28;20436;-70
2022/08/10 10:51:24;;;;;;;4.30;3.00;;;;;;;26.07;40.88;102353.66;5271300;28;20055;-68
2022/08/10 10:54:12;;;;;;;5.68;3.38;;;;;;;26.12;41.18;102357.06;5268178;28;20027;-69
2022/08/10 10:57:21;;;;;;;4.97;3.35;;;;;;;26.32;39.29;102348.69;5261132;28;20086;-68
2022/08/10 11:00:03;;;;;;;4.15;3.22;;;;;;;26.40;38.89;102345.69;5278360;28;20404;-68
2022/08/10 11:03:03;;;;;;;17.13;15.50;;;;;;;26.50;40.34;102343.53;5262226;28;20033;-68
2022/08/10 11:05:59;;;;;;;4.70;3.90;;;;;;;26.50;39.35;102338.66;5244444;28;20862;-68
2022/08/10 11:08:36;;;;;;;6.57;3.30;;;;;;;26.60;38.12;102340.19;5254824;28;20029;-68
2022/08/10 11:11:15;;;;;;;6.45;3.25;;;;;;;26.62;37.33;102332.13;5270998;28;20036;-68
2022/08/10 11:14:10;;;;;;;5.10;3.08;;;;;;;26.59;37.62;102341.38;5262055;28;20033;-68
2022/08/10 11:16:50;;;;;;;4.47;3.17;;;;;;;26.70;38.30;102331.09;5248700;28;20025;-72
2022/08/10 11:19:32;;;;;;;3.30;2.88;;;;;;;26.70;37.52;102325.41;5249643;28;20108;-72
2022/08/10 11:22:34;;;;;;;4.28;3.58;;;;;;;26.80;38.38;102324.88;5263377;28;20060;-70
2022/08/10 11:25:26;;;;;;;6.78;3.42;;;;;;;26.97;36.37;102323.72;5262564;28;20059;-70
2022/08/10 11:28:19;;;;;;;11.63;3.70;;;;;;;27.17;36.22;102318.91;5250399;28;20045;-71
2022/08/10 11:31:12;;;;;;;5.53;3.65;;;;;;;27.12;36.75;102322.03;5265286;28;20040;-70
2022/08/10 11:33:55;;;;;;;6.72;3.55;;;;;;;27.15;37.22;102317.63;5262096;28;20526;-70
2022/08/10 11:36:58;;;;;;;5.30;3.20;;;;;;;27.19;36.39;102319.41;5252124;28;20024;-69
2022/08/10 11:39:38;;;;;;;5.90;2.78;;;;;;;27.32;36.03;102326.63;5255606;28;20118;-67
2022/08/10 11:42:15;;;;;;;4.07;3.67;;;;;;;27.34;35.88;102319.75;5253372;28;20376;-67
2022/08/10 11:44:59;;;;;;;10.93;4.20;;;;;;;27.41;36.18;102314.25;5249434;28;20032;-69
2022/08/10 11:47:43;;;;;;;3.47;2.92;;;;;;;27.48;35.75;102314.38;5244392;28;20021;-68
2022/08/10 11:50:21;;;;;;;5.10;3.45;;;;;;;27.75;35.70;102312.56;5278150;28;20549;-68
2022/08/10 11:53:15;;;;;;;3.90;2.78;;;;;;;27.74;35.74;102308.91;5270101;28;20450;-69
2022/08/10 11:55:54;;;;;;;5.97;2.95;;;;;;;27.68;36.16;102303.84;5259301;28;20160;-68
2022/08/10 12:01:29;;;;;;;5.32;2.90;;;;;;;27.88;35.89;102291.31;5267907;28;20131;-69
2022/08/10 12:04:06;;;;;;;;;;;;;;;27.94;35.72;102301.22;5255573;28;20120;-69
2022/08/10 12:06:40;;;;;;;6.05;3.15;;;;;;;28.02;35.30;102290.81;5275231;28;19913;-69
2022/08/10 12:09:12;;;;;;;7.10;3.08;;;;;;;28.03;35.25;102291.63;5270462;28;20090;-69
2022/08/10 12:11:47;;;;;;;5.82;3.10;;;;;;;28.13;35.68;102293.88;5263902;28;20025;-69
2022/08/10 12:14:43;;;;;;;5.68;2.47;;;;;;;28.12;36.52;102290.19;5250055;28;20047;-69
2022/08/10 12:17:27;;;;;;;6.57;3.08;;;;;;;28.19;35.56;102284.63;5261938;28;20033;-69
2022/08/10 12:20:05;;;;;;;3.35;2.60;;;;;;;28.22;36.12;102280.19;5256073;28;20029;-68
2022/08/10 12:22:54;;;;;;;4.45;3.10;;;;;;;28.35;35.77;102278.00;5267287;28;20372;-69
2022/08/10 12:26:13;;;;;;;3.67;3.20;;;;;;;28.52;36.05;102277.53;5268639;28;20027;-69
2022/08/10 12:28:55;;;;;;;10.20;4.07;;;;;;;28.49;34.21;102278.31;5240401;28;20507;-67
2022/08/10 12:31:48;;;;;;;4.20;3.70;;;;;;;28.51;34.41;102272.22;5249087;28;20040;-67
2022/08/10 12:34:49;;;;;;;4.05;3.25;;;;;;;28.52;33.73;102274.69;5244350;28;20032;-67
2022/08/10 12:37:32;;;;;;;8.43;4.93;;;;;;;28.61;34.86;102263.03;5255219;28;20041;-67
2022/08/10 12:40:16;;;;;;;14.75;13.40;;;;;;;28.81;34.33;102260.91;5266545;28;20052;-67
2022/08/10 12:42:50;;;;;;;3.67;2.70;;;;;;;28.89;33.96;102259.00;5272303;28;20082;-68
2022/08/10 12:45:54;;;;;;;6.55;2.78;;;;;;;28.97;34.69;102258.75;5268523;28;20029;-67
2022/08/10 12:48:28;;;;;;;4.18;3.05;;;;;;;28.90;33.40;102258.63;5255788;28;20025;-67
2022/08/10 12:51:03;;;;;;;4.75;3.47;;;;;;;28.90;33.84;102257.81;5273870;28;20494;-67
2022/08/10 12:54:14;;;;;;;8.02;2.80;;;;;;;29.15;34.37;102250.50;5270725;28;20056;-67
2022/08/10 12:56:56;;;;;;;5.10;3.33;;;;;;;29.17;33.74;102250.09;5259133;28;20094;-67
2022/08/10 12:59:29;;;;;;;6.30;3.25;;;;;;;29.23;32.86;102242.88;5266598;28;20488;-68
2022/08/10 13:02:01;;;;;;;6.00;3.30;;;;;;;29.24;33.28;102250.22;5278644;28;20025;-68
2022/08/10 13:04:35;;;;;;;4.75;2.80;;;;;;;29.50;33.89;102245.69;5264168;28;20374;-67
2022/08/10 13:07:09;;;;;;;7.72;3.35;;;;;;;29.53;33.72;102247.75;5274650;28;20024;-69
2022/08/10 13:09:41;;;;;;;5.43;3.25;;;;;;;29.46;33.81;102242.78;5280253;28;20119;-69
2022/08/10 13:12:15;;;;;;;9.70;8.18;;;;;;;29.60;33.46;102239.28;5259105;28;20067;-69
2022/08/10 13:14:53;;;;;;;3.35;2.80;;;;;;;29.79;33.18;102236.31;5262393;28;20116;-68
2022/08/10 13:17:28;;;;;;;5.75;2.95;;;;;;;29.76;33.32;102230.53;5271808;28;20032;-66
2022/08/10 13:20:10;;;;;;;6.13;3.35;;;;;;;29.72;32.19;102236.22;5263899;28;20029;-67
2022/08/10 13:22:44;;;;;;;6.05;5.45;;;;;;;29.73;32.42;102225.59;5262126;28;20037;-67
2022/08/10 13:25:30;;;;;;;5.15;3.38;;;;;;;29.85;32.68;102213.91;5252982;28;20025;-67
2022/08/10 13:28:06;;;;;;;5.75;3.25;;;;;;;29.74;32.46;102210.13;5280156;28;20032;-67
2022/08/10 13:30:39;;;;;;;5.25;3.95;;;;;;;30.01;32.73;102216.53;5269023;28;20048;-68
2022/08/10 13:33:15;;;;;;;4.75;3.05;;;;;;;30.08;31.97;102208.88;5256645;28;20040;-69
2022/08/10 13:35:48;;;;;;;5.22;3.15;;;;;;;30.15;31.05;102208.13;5280586;28;20036;-69
2022/08/10 13:38:21;;;;;;;3.17;2.45;;;;;;;29.98;30.71;102205.91;5262469;28;20059;-69
2022/08/10 13:40:53;;;;;;;12.00;10.77;;;;;;;30.00;31.23;102206.34;5274866;28;20029;-69
2022/08/10 13:43:26;;;;;;;4.13;3.17;;;;;;;30.28;30.83;102203.81;5272595;28;20085;-68
2022/08/10 13:45:58;;;;;;;5.90;3.20;;;;;;;30.22;30.08;102199.63;5264984;28;20025;-68
2022/08/10 13:48:32;;;;;;;3.70;3.40;;;;;;;30.48;30.02;102197.88;5268941;28;20039;-69
2022/08/10 13:51:05;;;;;;;3.70;3.30;;;;;;;30.48;29.71;102186.41;5273891;28;20029;-68
2022/08/10 13:53:37;;;;;;;5.55;3.30;;;;;;;30.61;29.82;102184.06;5262049;28;20032;-69
2022/08/10 13:56:31;;;;;;;3.55;2.85;;;;;;;30.83;30.12;102193.66;5251336;28;20065;-68
2022/08/10 13:59:04;;;;;;;5.20;2.95;;;;;;;30.80;29.92;102183.78;5266849;28;20025;-68
2022/08/10 14:01:37;;;;;;;3.95;2.65;;;;;;;30.90;29.48;102177.34;5272050;28;20051;-69
2022/08/10 14:04:10;;;;;;;4.47;2.92;;;;;;;30.91;28.84;102181.03;5251236;28;20025;-68
2022/08/10 14:06:55;;;;;;;18.17;16.45;;;;;;;30.91;29.41;102173.28;5275784;28;20041;-67
2022/08/10 14:09:31;;;;;;;4.13;3.47;;;;;;;30.89;29.32;102172.84;5276959;28;20048;-67
2022/08/10 14:12:02;;;;;;;5.68;3.20;;;;;;;30.84;29.21;102175.28;5265325;28;20021;-68
2022/08/10 14:14:35;;;;;;;3.67;2.58;;;;;;;30.92;27.74;102172.06;5276440;28;20029;-68
2022/08/10 14:17:08;;;;;;;5.13;2.80;;;;;;;31.09;28.37;102167.66;5274368;28;20024;-69
2022/08/10 14:19:41;;;;;;;7.05;2.63;;;;;;;31.08;28.39;102174.59;5255262;28;20029;-68
2022/08/10 14:22:20;;;;;;;3.65;3.03;;;;;;;31.12;27.81;102157.44;5278106;28;20123;-69
2022/08/10 14:24:51;;;;;;;3.28;2.63;;;;;;;31.13;27.53;102154.16;5261915;28;20077;-69
2022/08/10 14:27:23;;;;;;;3.78;2.75;;;;;;;31.22;26.96;102152.97;5270440;28;20037;-69
2022/08/10 14:29:55;;;;;;;5.47;2.33;;;;;;;31.38;27.46;102147.78;5250466;28;20037;-69
2022/08/10 14:32:30;;;;;;;3.47;2.58;;;;;;;31.30;26.94;102143.22;5278323;28;20107;-68
2022/08/10 14:35:07;;;;;;;4.85;2.75;;;;;;;31.21;27.09;102143.56;5272807;28;20017;-68
2022/08/10 14:37:43;;;;;;;2.67;2.22;;;;;;;31.22;27.10;102138.66;5252184;28;20032;-69
2022/08/10 14:40:18;;;;;;;2.70;2.50;;;;;;;31.07;26.95;102144.31;5255806;28;20021;-69
2022/08/10 14:42:52;;;;;;;3.33;2.22;;;;;;;31.16;27.06;102146.81;5265630;28;20056;-68
2022/08/10 14:45:30;;;;;;;4.45;2.58;;;;;;;31.07;27.41;102134.91;5263147;28;20025;-68
2022/08/10 14:48:06;;;;;;;3.80;2.67;;;;;;;31.01;27.95;102131.59;5279344;28;20073;-69
2022/08/10 14:50:39;;;;;;;4.63;2.97;;;;;;;31.04;27.03;102133.69;5268676;28;20490;-69
2022/08/10 14:53:18;;;;;;;4.47;2.92;;;;;;;31.03;27.61;102128.34;5268028;28;20105;-69
2022/08/10 14:55:53;;;;;;;6.30;3.15;;;;;;;30.89;27.30;102134.81;5274733;28;20025;-70
2022/08/10 14:58:28;;;;;;;5.03;2.75;;;;;;;30.89;27.65;102134.81;5251047;28;20013;-71
2022/08/10 15:01:03;;;;;;;5.68;2.45;;;;;;;30.90;28.12;102127.84;5262619;28;20056;-70
2022/08/10 15:03:37;;;;;;;3.88;2.10;;;;;;;30.62;28.29;102122.72;5261104;28;20032;-70
2022/08/10 15:06:21;;;;;;;5.10;4.60;;;;;;;30.86;29.38;102124.97;5286998;28;20443;-69
2022/08/10 15:09:20;;;;;;;9.20;8.27;;;;;;;30.70;29.61;102124.41;5262792;28;20024;-70
2022/08/10 15:11:54;;;;;;;4.85;3.10;;;;;;;30.74;29.45;102131.81;5269135;28;20056;-68
2022/08/10 15:14:26;;;;;;;5.20;2.78;;;;;;;30.64;28.12;102137.47;5262263;28;20044;-69
2022/08/10 15:16:58;;;;;;;3.05;2.72;;;;;;;30.67;29.65;102133.81;5274176;28;20032;-69
2022/08/10 15:19:34;;;;;;;6.85;3.60;;;;;;;30.52;28.78;102136.53;5263381;28;20472;-70
2022/08/10 15:22:06;;;;;;;9.60;8.77;;;;;;;30.48;29.53;102130.00;5279081;28;20036;-69
2022/08/10 15:27:47;;;;;;;5.80;3.00;;;;;;;30.40;28.79;102128.28;5272959;28;20025;-69
2022/08/10 15:30:21;;;;;;;9.40;8.38;;;;;;;30.38;28.51;102118.47;5267478;28;20025;-70
2022/08/10 15:38:40;;;;;;;5.55;2.78;;;;;;;30.37;28.36;102117.63;5263524;28;20048;-69
2022/08/10 15:41:15;;;;;;;8.43;5.95;;;;;;;30.26;28.34;102123.25;5274161;28;20029;-69
2022/08/10 15:43:47;;;;;;;3.92;2.28;;;;;;;30.29;28.28;102105.28;5281118;28;20138;-69
2022/08/10 15:46:32;;;;;;;3.17;2.10;;;;;;;30.31;28.05;102114.31;5268308;28;20111;-69
2022/08/10 15:49:08;;;;;;;;;;;;;;;30.37;28.15;102113.94;5270969;28;20040;-70
2022/08/10 15:51:46;;;;;;;2.72;2.45;;;;;;;30.34;28.29;102112.69;5266017;28;20429;-70
2022/08/10 15:54:25;;;;;;;3.55;2.25;;;;;;;30.33;27.86;102105.34;5252348;28;20535;-70
2022/08/10 15:57:02;;;;;;;4.68;2.20;;;;;;;30.34;28.19;102098.38;5276024;28;20021;-70
2022/08/10 15:59:42;;;;;;;5.10;2.50;;;;;;;30.28;28.22;102097.94;5270610;28;20045;-70
2022/08/10 16:02:19;;;;;;;5.72;5.15;;;;;;;30.33;27.83;102091.84;5263511;28;20380;-70
2022/08/10 16:04:53;;;;;;;7.70;2.67;;;;;;;30.45;27.82;102095.59;5271882;28;20036;-70
2022/08/10 16:07:34;;;;;;;1.93;1.83;;;;;;;30.41;27.10;102100.50;5271045;28;20021;-70
2022/08/10 16:10:13;;;;;;;3.17;2.00;;;;;;;30.27;28.22;102090.59;5277503;28;20383;-70
2022/08/10 16:12:51;;;;;;;2.28;2.08;;;;;;;30.20;27.86;102096.22;5254721;28;20452;-70
2022/08/10 16:15:25;;;;;;;2.25;1.90;;;;;;;30.25;27.68;102092.19;5273958;28;20085;-71
2022/08/10 16:18:04;;;;;;;4.68;2.40;;;;;;;30.34;28.02;102095.53;5263746;28;20114;-71
2022/08/10 16:20:50;;;;;;;2.75;2.13;;;;;;;30.28;27.83;102083.63;5267792;28;20032;-71
2022/08/10 16:23:24;;;;;;;3.03;2.03;;;;;;;30.10;27.84;102089.16;5272421;28;20047;-69
2022/08/10 16:26:09;;;;;;;5.07;2.10;;;;;;;30.30;28.33;102089.78;5263410;28;20040;-71
2022/08/10 16:28:48;;;;;;;4.53;2.13;;;;;;;30.25;28.18;102092.19;5271957;28;20391;-70
2022/08/10 16:31:23;;;;;;;2.40;1.95;;;;;;;30.11;27.97;102084.25;5273042;28;20287;-68
2022/08/10 16:33:59;;;;;;;2.20;2.00;;;;;;;30.11;28.01;102081.41;5275180;28;20360;-66
2022/08/10 16:36:39;;;;;;;3.70;1.80;;;;;;;30.28;27.42;102075.03;5266845;28;20035;-67
2022/08/10 16:39:19;;;;;;;2.38;2.03;;;;;;;30.15;27.91;102081.44;5272295;28;20029;-68
2022/08/10 16:41:59;;;;;;;6.60;2.72;;;;;;;30.14;28.49;102077.75;5280408;28;20353;-68
2022/08/10 16:44:38;;;;;;;2.25;2.05;;;;;;;30.22;27.84;102076.63;5274620;28;20205;-68
2022/08/10 16:47:11;;;;;;;2.50;1.75;;;;;;;30.21;29.14;102072.09;5270675;28;20056;-68
2022/08/10 16:49:44;;;;;;;3.88;2.00;;;;;;;30.13;27.38;102071.22;5277065;28;20037;-68
2022/08/10 16:52:16;;;;;;;3.55;1.90;;;;;;;30.14;27.71;102072.03;5265259;28;20043;-68
2022/08/10 16:54:50;;;;;;;2.55;1.88;;;;;;;30.10;27.75;102069.16;5273143;28;20111;-67
2022/08/10 16:57:24;;;;;;;6.47;2.00;;;;;;;30.28;28.92;102068.50;5271705;28;20021;-68
2022/08/10 16:59:57;;;;;;;5.78;1.80;;;;;;;30.54;27.86;102061.75;5261290;28;20057;-68
2022/08/10 17:02:31;;;;;;;2.20;1.60;;;;;;;30.63;26.88;102067.94;5258676;28;20036;-67
2022/08/10 17:05:07;;;;;;;2.78;2.03;;;;;;;30.66;27.09;102058.56;5266253;28;20213;-68
2022/08/10 17:07:41;;;;;;;5.05;2.22;;;;;;;30.51;27.80;102053.97;5267739;28;20083;-68
2022/08/10 17:10:16;;;;;;;4.30;2.45;;;;;;;30.58;27.38;102054.00;5255183;28;20487;-68
2022/08/10 17:12:53;;;;;;;1.85;1.70;;;;;;;30.58;27.52;102062.59;5278365;28;20533;-67
2022/08/10 17:15:26;;;;;;;2.92;2.05;;;;;;;30.56;27.49;102065.03;5272038;28;20482;-68
2022/08/10 17:18:01;;;;;;;38.42;33.13;;;;;;;30.68;27.93;102066.72;5273867;28;20020;-67
2022/08/10 17:20:38;;;;;;;6.38;5.43;;;;;;;30.53;28.25;102063.78;5270543;28;20111;-68
2022/08/10 17:23:12;;;;;;;3.53;1.85;;;;;;;30.64;27.87;102058.13;5264744;28;20033;-68
2022/08/10 17:25:48;;;;;;;3.33;2.00;;;;;;;30.60;28.19;102051.53;5260629;28;20108;-68
2022/08/10 17:28:24;;;;;;;4.65;1.75;;;;;;;30.37;28.38;102065.28;5252725;28;20131;-68
2022/08/10 17:31:06;;;;;;;3.45;2.10;;;;;;;30.45;28.16;102061.25;5273099;28;20056;-68
